Hlavní strana
METAR-TAF:

METAR-TAF

Letiště :

Sumter, Jižní Karolína, Spojené státy americké

zeměpisná šířka: 33-59-42N, zeměpisná délka: 080-21-41W, výška: 55 m

Aktuální stav počasí

Zpráva byla vytvořena před 12 minutami, v 08:35 UTC
Bezvětří
Teplota 24°C
Vlhkost vzduchu 94%
Tlak 1018 hPa
Viditelnost: 11.3 km
Skoro jasno ve výšce 900 ft
Zataženo ve výšce 1500 ft

METAR: KSMS 290835Z AUTO 00000KT 7SM FEW009 OVC015 24/23 A3005 RMK AO2

Čas: 04:47 (08:47 UTC)


TAF: chybějící

Stav a předpovědi počasí z více než 4 000 letišť (zprávy METAR a TAF).

Červené a žluté tečky na mapě představují dostupné meteorologické stanice.

Když kurzor umístíte na tečku, zobrazí se název stanice.

Pak kliknutím zobrazíte stav a předpověď počasí.

Chcete-li změnit mapu, kliknutím na zelené tlačítko se znaménkem +mapu přiblížíte, kliknutím na zelené tlačítko se znaménkem – mapu oddálíte a kliknutím na zelené šipky přejdete na sousední mapy.


METAR-TAF: